createdAt,value
2023-07-19T00:00:07.303Z,25.40
2023-07-19T00:03:03.943Z,25.44
2023-07-19T00:05:33.382Z,25.51
2023-07-19T00:08:03.242Z,25.57
2023-07-19T00:10:32.259Z,25.61
2023-07-19T00:13:01.094Z,25.63
2023-07-19T00:15:31.339Z,25.57
2023-07-19T00:18:00.782Z,25.67
2023-07-19T00:20:31.954Z,25.73
2023-07-19T00:23:00.670Z,25.69
2023-07-19T00:25:29.593Z,25.68
2023-07-19T00:27:58.160Z,25.51
2023-07-19T00:30:27.150Z,25.36
2023-07-19T00:32:55.925Z,24.80
2023-07-19T00:35:24.927Z,24.99
2023-07-19T00:37:54.857Z,24.54
2023-07-19T00:40:23.777Z,24.65
2023-07-19T00:42:57.883Z,24.36
2023-07-19T00:45:28.184Z,24.15
2023-07-19T00:47:59.291Z,24.48
2023-07-19T00:50:28.897Z,24.66
2023-07-19T00:52:59.207Z,24.80
2023-07-19T00:55:28.236Z,24.78
2023-07-19T00:57:56.955Z,24.62
2023-07-19T01:00:27.444Z,24.69
2023-07-19T01:02:56.215Z,24.75
2023-07-19T01:05:25.366Z,24.88
2023-07-19T01:07:56.205Z,24.90
2023-07-19T01:10:27.501Z,24.99
2023-07-19T01:13:05.926Z,25.15
2023-07-19T01:15:35.262Z,25.09
2023-07-19T01:18:04.122Z,25.13
2023-07-19T01:20:34.888Z,25.21
2023-07-19T01:23:05.615Z,25.25
2023-07-19T01:25:34.774Z,25.29
2023-07-19T01:28:03.445Z,25.26
2023-07-19T01:30:32.509Z,25.27
2023-07-19T01:33:01.552Z,25.24
2023-07-19T01:35:30.806Z,25.19
2023-07-19T01:37:59.756Z,25.30
2023-07-19T01:40:30.121Z,25.38
2023-07-19T01:42:58.787Z,25.44
2023-07-19T01:45:29.343Z,25.49
2023-07-19T01:47:58.061Z,25.22
2023-07-19T01:50:27.619Z,25.32
2023-07-19T01:52:56.287Z,25.37
2023-07-19T01:55:25.320Z,25.39
2023-07-19T01:57:55.429Z,25.44
2023-07-19T02:00:25.200Z,25.55
2023-07-19T02:02:54.974Z,25.40
2023-07-19T02:05:24.175Z,25.45
2023-07-19T02:07:52.813Z,25.44
2023-07-19T02:10:21.956Z,25.45
2023-07-19T02:12:51.092Z,25.49
2023-07-19T02:15:21.624Z,25.52
2023-07-19T02:17:50.361Z,25.51
2023-07-19T02:20:20.608Z,25.52
2023-07-19T02:22:49.452Z,25.51
2023-07-19T02:25:18.475Z,25.51
2023-07-19T02:27:47.103Z,25.49
2023-07-19T02:30:16.002Z,25.52
2023-07-19T02:32:46.089Z,25.39
2023-07-19T02:35:15.301Z,25.43
2023-07-19T02:37:44.145Z,25.45
2023-07-19T02:40:13.701Z,25.48
2023-07-19T02:42:42.364Z,25.52
2023-07-19T02:45:11.763Z,25.39
2023-07-19T02:47:40.323Z,25.46
2023-07-19T02:50:11.821Z,25.49
2023-07-19T02:52:40.507Z,25.46
2023-07-19T02:55:10.271Z,25.43
2023-07-19T02:57:38.951Z,25.47
2023-07-19T03:00:09.323Z,25.48
2023-07-19T03:02:38.068Z,25.48
2023-07-19T03:05:07.838Z,25.52
2023-07-19T03:07:38.203Z,25.46
2023-07-19T03:10:07.765Z,25.39
2023-07-19T03:12:36.386Z,25.53
2023-07-19T03:15:06.166Z,25.50
2023-07-19T03:17:35.160Z,25.48
2023-07-19T03:20:04.445Z,25.13
2023-07-19T03:22:33.389Z,24.84
2023-07-19T03:25:03.975Z,25.03
2023-07-19T03:27:32.736Z,25.12
2023-07-19T03:30:02.263Z,25.11
2023-07-19T03:32:32.787Z,25.18
2023-07-19T03:35:01.841Z,25.21
2023-07-19T03:37:31.295Z,25.25
2023-07-19T03:40:00.416Z,25.26
2023-07-19T03:42:30.502Z,25.30
2023-07-19T03:44:59.542Z,25.27
2023-07-19T03:47:28.241Z,25.30
2023-07-19T03:49:57.823Z,25.20
2023-07-19T03:52:26.503Z,23.75
2023-07-19T03:54:57.790Z,22.67
2023-07-19T03:57:32.791Z,22.60
2023-07-19T04:00:05.048Z,22.47
2023-07-19T04:02:46.011Z,22.42
2023-07-19T04:05:18.491Z,22.76
2023-07-19T04:07:47.266Z,22.98
2023-07-19T04:10:16.723Z,23.22
2023-07-19T04:12:47.655Z,22.89
2023-07-19T04:15:17.207Z,22.70
2023-07-19T04:17:46.919Z,22.87
2023-07-19T04:20:16.255Z,23.22
2023-07-19T04:22:45.194Z,23.02
2023-07-19T04:25:15.014Z,22.56
2023-07-19T04:27:43.965Z,22.73
2023-07-19T04:30:15.805Z,22.79
2023-07-19T04:32:45.073Z,22.87
2023-07-19T04:35:14.978Z,22.85
2023-07-19T04:37:43.987Z,23.15
2023-07-19T04:40:13.872Z,23.53
2023-07-19T04:42:43.302Z,23.86
2023-07-19T04:45:15.133Z,23.88
2023-07-19T04:47:45.361Z,23.83
2023-07-19T04:50:14.848Z,23.71
2023-07-19T04:52:46.563Z,23.89
2023-07-19T04:55:16.620Z,24.00
2023-07-19T04:57:45.646Z,23.90
2023-07-19T05:00:19.645Z,24.41
2023-07-19T05:02:48.993Z,24.65
2023-07-19T05:05:18.777Z,25.02
2023-07-19T05:07:50.016Z,25.18
2023-07-19T05:10:20.687Z,25.32
2023-07-19T05:12:50.088Z,25.51
2023-07-19T05:15:21.327Z,25.76
2023-07-19T05:17:50.603Z,26.00
2023-07-19T05:20:21.226Z,26.25
2023-07-19T05:22:50.812Z,26.43
2023-07-19T05:25:20.175Z,26.46
2023-07-19T05:27:49.219Z,26.66
2023-07-19T05:30:18.815Z,26.87
2023-07-19T05:32:50.154Z,27.03
2023-07-19T05:35:19.737Z,27.25
2023-07-19T05:37:48.647Z,27.45
2023-07-19T05:40:18.465Z,27.64
2023-07-19T05:42:47.879Z,27.42
2023-07-19T05:45:16.965Z,27.09
2023-07-19T05:47:45.629Z,26.83
2023-07-19T05:50:17.030Z,27.24
2023-07-19T05:52:45.792Z,27.27
2023-07-19T05:55:15.725Z,26.72
2023-07-19T05:57:44.343Z,27.09
2023-07-19T06:00:25.582Z,27.43
2023-07-19T06:02:55.842Z,27.66
2023-07-19T06:05:28.145Z,27.82
2023-07-19T06:08:04.010Z,28.03
2023-07-19T06:10:43.174Z,28.25
2023-07-19T06:13:15.206Z,28.37
2023-07-19T06:15:44.209Z,28.50
2023-07-19T06:18:12.976Z,28.29
2023-07-19T06:20:43.382Z,28.22
2023-07-19T06:23:12.051Z,28.44
2023-07-19T06:25:41.022Z,28.07
2023-07-19T06:28:09.780Z,28.29
2023-07-19T06:30:38.870Z,28.21
2023-07-19T06:33:07.532Z,28.44
2023-07-19T06:35:36.576Z,28.68
2023-07-19T06:38:07.103Z,28.07
2023-07-19T06:40:36.031Z,26.91
2023-07-19T06:43:07.428Z,26.52
2023-07-19T06:45:36.294Z,26.17
2023-07-19T06:48:05.248Z,26.77
2023-07-19T06:50:34.507Z,27.27
2023-07-19T06:53:03.328Z,27.73
2023-07-19T06:55:33.641Z,28.05
2023-07-19T06:58:02.319Z,28.33
2023-07-19T07:00:31.448Z,28.62
2023-07-19T07:03:00.162Z,28.88
2023-07-19T07:05:29.404Z,28.53
2023-07-19T07:07:57.950Z,28.22
2023-07-19T07:10:26.936Z,28.43
2023-07-19T07:12:57.041Z,27.70
2023-07-19T07:15:26.030Z,27.55
2023-07-19T07:17:54.820Z,27.33
2023-07-19T07:20:23.778Z,27.34
2023-07-19T07:22:54.195Z,27.58
2023-07-19T07:25:23.440Z,27.70
2023-07-19T07:27:52.118Z,27.15
2023-07-19T07:30:22.560Z,26.66
2023-07-19T07:32:51.189Z,26.42
2023-07-19T07:35:20.364Z,26.13
2023-07-19T07:37:49.022Z,26.52
2023-07-19T07:40:18.035Z,26.85
2023-07-19T07:42:46.601Z,27.44
2023-07-19T07:45:15.715Z,27.34
2023-07-19T07:47:45.828Z,27.46
2023-07-19T07:50:14.849Z,27.19
2023-07-19T07:52:44.169Z,27.08
2023-07-19T07:55:15.607Z,26.61
2023-07-19T07:57:44.504Z,26.62
2023-07-19T08:00:16.249Z,27.10
2023-07-19T08:02:46.415Z,26.39
2023-07-19T08:05:15.485Z,26.37
2023-07-19T08:07:44.215Z,26.25
2023-07-19T08:10:13.359Z,26.27
2023-07-19T08:12:42.061Z,26.57
2023-07-19T08:15:11.566Z,26.61
2023-07-19T08:17:40.408Z,26.57
2023-07-19T08:20:12.410Z,26.96
2023-07-19T08:22:41.707Z,26.32
2023-07-19T08:25:25.681Z,26.23
2023-07-19T08:27:56.384Z,26.06
2023-07-19T08:30:25.721Z,26.24
2023-07-19T08:32:54.727Z,26.14
2023-07-19T08:35:25.261Z,26.35
2023-07-19T08:37:54.011Z,26.67
2023-07-19T08:40:23.140Z,26.86
2023-07-19T08:42:53.020Z,26.35
2023-07-19T08:45:26.138Z,26.38
2023-07-19T08:47:55.440Z,26.07
2023-07-19T08:50:27.599Z,26.45
2023-07-19T08:53:02.360Z,26.57
2023-07-19T08:55:32.812Z,27.18
2023-07-19T08:58:01.884Z,27.82
2023-07-19T09:00:33.291Z,27.48
2023-07-19T09:03:02.035Z,27.45
2023-07-19T09:05:32.436Z,28.06
2023-07-19T09:08:02.234Z,27.57
2023-07-19T09:10:31.233Z,27.38
2023-07-19T09:12:59.851Z,27.88
2023-07-19T09:15:30.041Z,27.84
2023-07-19T09:17:58.803Z,27.34
2023-07-19T09:20:30.105Z,27.37
2023-07-19T09:23:00.190Z,27.67
2023-07-19T09:25:29.790Z,28.01
2023-07-19T09:27:58.379Z,27.90
2023-07-19T09:30:27.627Z,27.98
2023-07-19T09:33:02.361Z,28.02
2023-07-19T09:35:31.882Z,27.95
2023-07-19T09:38:02.110Z,27.95
2023-07-19T09:40:32.789Z,28.19
2023-07-19T09:43:02.748Z,28.47
2023-07-19T09:45:33.968Z,28.60
2023-07-19T09:48:05.734Z,28.34
2023-07-19T09:50:35.141Z,27.98
2023-07-19T09:53:05.546Z,28.17
2023-07-19T09:55:35.669Z,27.96
2023-07-19T09:58:07.327Z,28.19
2023-07-19T10:00:37.409Z,28.33
2023-07-19T10:03:08.229Z,28.45
2023-07-19T10:05:38.281Z,28.15
2023-07-19T10:08:12.678Z,28.15
2023-07-19T10:10:43.126Z,28.75
2023-07-19T10:13:14.951Z,28.88
2023-07-19T10:15:52.474Z,29.01
2023-07-19T10:18:22.286Z,29.58
2023-07-19T10:21:02.681Z,29.30
2023-07-19T10:23:32.806Z,28.53
2023-07-19T10:26:07.859Z,29.04
2023-07-19T10:28:36.603Z,29.18
2023-07-19T10:31:25.884Z,29.04
2023-07-19T10:33:57.252Z,29.56
2023-07-19T10:36:26.752Z,28.76
2023-07-19T10:38:57.155Z,29.14
2023-07-19T10:41:26.094Z,29.53
2023-07-19T10:44:01.502Z,30.18
2023-07-19T10:46:32.462Z,30.49
2023-07-19T10:49:01.243Z,30.99
2023-07-19T10:51:30.303Z,30.99
2023-07-19T10:54:00.804Z,30.25
2023-07-19T10:56:30.801Z,30.06
2023-07-19T10:59:00.905Z,29.81
2023-07-19T11:01:31.609Z,29.60
2023-07-19T11:04:05.932Z,29.79
2023-07-19T11:06:35.634Z,30.45
2023-07-19T11:09:10.501Z,29.97
2023-07-19T11:11:40.931Z,30.58
2023-07-19T11:14:09.736Z,31.13
2023-07-19T11:16:38.715Z,31.56
2023-07-19T11:19:07.358Z,31.81
2023-07-19T11:21:36.222Z,31.64
2023-07-19T11:24:06.603Z,31.81
2023-07-19T11:26:52.742Z,32.03
2023-07-19T11:29:21.849Z,31.51
2023-07-19T11:31:50.795Z,31.24
2023-07-19T11:34:19.451Z,30.77
2023-07-19T11:36:49.398Z,31.49
2023-07-19T11:39:18.283Z,31.96
2023-07-19T11:41:49.875Z,32.39
2023-07-19T11:44:20.568Z,32.98
2023-07-19T11:46:49.629Z,33.50
2023-07-19T11:49:19.179Z,34.06
2023-07-19T11:51:48.978Z,34.36
2023-07-19T11:54:17.511Z,34.62
2023-07-19T11:56:46.378Z,34.81
2023-07-19T11:59:16.426Z,35.12
2023-07-19T12:01:45.359Z,35.47
2023-07-19T12:04:14.002Z,35.99
2023-07-19T12:06:42.926Z,36.49
2023-07-19T12:09:14.202Z,36.22
2023-07-19T12:11:46.790Z,36.26
2023-07-19T12:14:18.153Z,35.21
2023-07-19T12:16:47.037Z,35.70
2023-07-19T12:19:16.462Z,35.98
2023-07-19T12:21:45.386Z,36.25
2023-07-19T12:24:14.037Z,35.53
2023-07-19T12:26:42.997Z,35.77
2023-07-19T12:29:12.452Z,36.10
2023-07-19T12:31:42.853Z,36.99
2023-07-19T12:34:11.399Z,37.63
2023-07-19T12:36:40.249Z,37.97
2023-07-19T12:39:08.818Z,38.52
2023-07-19T12:41:39.918Z,38.19
2023-07-19T12:44:09.194Z,38.84
2023-07-19T12:46:38.420Z,39.66
2023-07-19T12:49:08.347Z,40.45
2023-07-19T12:51:37.384Z,40.89
2023-07-19T12:54:06.306Z,40.16
2023-07-19T12:56:35.255Z,39.05
2023-07-19T12:59:04.309Z,38.41
2023-07-19T13:01:34.807Z,39.43
2023-07-19T13:04:03.778Z,40.08
2023-07-19T13:06:35.182Z,40.62
2023-07-19T13:09:05.508Z,39.85
2023-07-19T13:11:35.221Z,38.31
2023-07-19T13:14:04.893Z,39.50
2023-07-19T13:16:34.627Z,39.87
2023-07-19T13:19:03.253Z,40.21
2023-07-19T13:21:33.788Z,40.58
2023-07-19T13:24:02.493Z,41.16
2023-07-19T13:26:31.563Z,41.77
2023-07-19T13:29:01.429Z,42.29
2023-07-19T13:31:30.440Z,41.40
2023-07-19T13:33:59.324Z,40.23
2023-07-19T13:36:29.958Z,40.28
2023-07-19T13:39:01.032Z,40.50
2023-07-19T13:41:29.982Z,40.84
2023-07-19T13:43:58.684Z,41.65
2023-07-19T13:46:27.894Z,41.72
2023-07-19T13:48:56.654Z,39.22
2023-07-19T13:51:25.581Z,39.22
2023-07-19T13:53:54.564Z,39.69
2023-07-19T13:56:24.868Z,39.80
2023-07-19T13:58:53.446Z,39.75
2023-07-19T14:01:22.650Z,39.12
2023-07-19T14:03:52.093Z,39.17
2023-07-19T14:06:23.095Z,38.22
2023-07-19T14:08:52.257Z,38.36
2023-07-19T14:11:21.275Z,38.28
2023-07-19T14:16:23.691Z,38.11
2023-07-19T14:18:52.669Z,38.04
2023-07-19T14:21:21.631Z,37.94
2023-07-19T14:23:50.404Z,37.47
2023-07-19T14:26:19.741Z,37.42
2023-07-19T14:28:48.817Z,36.67
2023-07-19T14:31:22.597Z,36.79
2023-07-19T14:33:51.628Z,36.67
2023-07-19T14:36:22.995Z,36.25
2023-07-19T14:38:53.360Z,36.32
2023-07-19T14:41:22.463Z,35.39
2023-07-19T14:43:51.893Z,35.25
2023-07-19T14:46:24.457Z,35.23
2023-07-19T14:48:53.453Z,35.51
2023-07-19T14:51:22.380Z,35.66
2023-07-19T14:53:51.368Z,35.51
2023-07-19T14:56:21.342Z,35.04
2023-07-19T14:58:50.053Z,34.86
2023-07-19T15:01:22.287Z,34.89
2023-07-19T15:03:52.871Z,35.15
2023-07-19T15:06:23.539Z,35.28
2023-07-19T15:08:54.008Z,35.38
2023-07-19T15:11:23.772Z,35.40
2023-07-19T15:13:52.629Z,35.26
2023-07-19T15:16:23.404Z,34.90
2023-07-19T15:18:52.543Z,35.03
2023-07-19T15:21:22.303Z,35.15
2023-07-19T15:23:50.935Z,35.10
2023-07-19T15:26:33.389Z,35.01
2023-07-19T15:29:03.573Z,34.47
2023-07-19T15:31:34.754Z,34.81
2023-07-19T15:34:03.902Z,34.98
2023-07-19T15:36:32.824Z,35.13
2023-07-19T15:39:01.473Z,35.18
2023-07-19T15:41:30.474Z,35.27
2023-07-19T15:43:59.095Z,35.34
2023-07-19T15:46:28.336Z,35.33
2023-07-19T15:48:58.404Z,35.28
2023-07-19T15:51:27.277Z,35.33
2023-07-19T15:53:55.899Z,35.42
2023-07-19T15:56:25.064Z,35.47
2023-07-19T15:58:53.544Z,35.21
2023-07-19T16:01:22.803Z,35.26
2023-07-19T16:03:51.769Z,35.95
2023-07-19T16:06:22.137Z,35.40
2023-07-19T16:08:50.963Z,35.44
2023-07-19T16:11:20.146Z,34.55
2023-07-19T16:13:50.369Z,34.88
2023-07-19T16:16:19.348Z,35.06
2023-07-19T16:18:48.333Z,35.05
2023-07-19T16:21:17.250Z,35.19
2023-07-19T16:23:47.430Z,35.34
2023-07-19T16:26:16.417Z,35.33
2023-07-19T16:28:45.006Z,35.23
2023-07-19T16:31:14.373Z,35.25
2023-07-19T16:33:43.470Z,35.35
2023-07-19T16:36:12.619Z,35.37
2023-07-19T16:38:41.367Z,35.19
2023-07-19T16:41:11.709Z,34.83
2023-07-19T16:43:40.459Z,34.69
2023-07-19T16:46:09.681Z,34.85
2023-07-19T16:48:38.455Z,34.80
2023-07-19T16:51:07.499Z,34.71
2023-07-19T16:53:36.065Z,34.77
2023-07-19T16:56:05.039Z,34.67
2023-07-19T16:58:35.158Z,34.60
2023-07-19T17:01:04.162Z,34.56
2023-07-19T17:03:32.842Z,34.58
2023-07-19T17:06:01.873Z,34.33
2023-07-19T17:08:30.600Z,34.39
2023-07-19T17:11:00.371Z,34.26
2023-07-19T17:13:29.503Z,33.95
2023-07-19T17:16:01.009Z,33.46
2023-07-19T17:18:29.660Z,33.55
2023-07-19T17:20:58.682Z,33.35
2023-07-19T17:23:27.421Z,33.50
2023-07-19T17:25:56.446Z,33.57
2023-07-19T17:28:25.154Z,33.60
2023-07-19T17:30:57.079Z,33.63
2023-07-19T17:33:27.179Z,33.59
2023-07-19T17:35:56.297Z,33.55
2023-07-19T17:38:27.130Z,33.52
2023-07-19T17:40:57.380Z,33.46
2023-07-19T17:43:26.537Z,33.51
2023-07-19T17:45:55.509Z,33.36
2023-07-19T17:48:24.209Z,33.29
2023-07-19T17:50:54.842Z,33.23
2023-07-19T17:53:23.490Z,33.04
2023-07-19T17:55:52.500Z,32.07
2023-07-19T17:58:21.203Z,31.26
2023-07-19T18:00:50.870Z,29.34
2023-07-19T18:03:19.884Z,24.47
2023-07-19T18:05:48.983Z,21.69
2023-07-19T18:08:23.944Z,18.90
2023-07-19T18:10:54.693Z,17.11
2023-07-19T18:13:23.469Z,16.29
2023-07-19T18:15:52.430Z,15.98
2023-07-19T18:18:21.313Z,15.78
2023-07-19T18:20:52.722Z,15.48
2023-07-19T18:23:22.959Z,15.32
2023-07-19T18:25:51.927Z,15.34
2023-07-19T18:28:20.659Z,15.37
2023-07-19T18:30:49.833Z,15.20
2023-07-19T18:33:18.660Z,15.37
2023-07-19T18:35:47.782Z,15.32
2023-07-19T18:38:16.576Z,15.41
2023-07-19T18:40:47.199Z,15.58
2023-07-19T18:43:16.340Z,15.65
2023-07-19T18:46:05.427Z,15.86
2023-07-19T18:48:34.620Z,15.84
2023-07-19T18:51:04.189Z,15.84
2023-07-19T18:53:37.188Z,15.98
2023-07-19T18:56:11.115Z,16.53
2023-07-19T18:58:40.039Z,16.89
2023-07-19T19:01:09.299Z,17.23
2023-07-19T19:03:38.544Z,17.33
2023-07-19T19:10:14.893Z,18.38
2023-07-19T19:12:45.091Z,18.58
2023-07-19T19:15:14.190Z,18.59
2023-07-19T19:17:43.091Z,18.80
2023-07-19T19:20:12.717Z,19.02
2023-07-19T19:22:41.598Z,19.21
2023-07-19T19:25:11.658Z,19.23
2023-07-19T19:27:40.279Z,19.24
2023-07-19T19:30:11.346Z,19.38
2023-07-19T19:32:40.316Z,19.55
2023-07-19T19:35:14.102Z,19.47
2023-07-19T19:37:43.222Z,19.47
2023-07-19T19:40:13.297Z,19.33
2023-07-19T19:42:45.089Z,19.35
2023-07-19T19:45:15.456Z,19.16
2023-07-19T19:47:45.679Z,19.09
2023-07-19T19:50:15.408Z,18.89
2023-07-19T19:52:52.181Z,18.82
2023-07-19T19:55:48.943Z,19.04
2023-07-19T19:58:16.892Z,19.22
2023-07-19T20:00:47.868Z,19.55
2023-07-19T20:08:20.878Z,19.74
2023-07-19T20:13:21.522Z,20.10
2023-07-19T20:15:53.718Z,20.19
2023-07-19T20:18:23.154Z,20.11
2023-07-19T20:20:53.689Z,20.17
2023-07-19T20:23:22.415Z,20.08
2023-07-19T20:26:12.061Z,20.29
2023-07-19T20:28:39.979Z,20.27
2023-07-19T20:31:10.736Z,20.35
2023-07-19T20:33:42.423Z,20.46
2023-07-19T20:36:45.668Z,20.61
2023-07-19T20:39:01.205Z,20.45
2023-07-19T20:44:01.962Z,20.91
2023-07-19T20:46:34.686Z,20.91
2023-07-19T20:49:06.215Z,20.88
2023-07-19T20:51:35.832Z,21.14
2023-07-19T20:54:06.488Z,21.08
2023-07-19T20:56:37.030Z,21.19
2023-07-19T20:59:05.670Z,21.35
2023-07-19T21:01:38.080Z,21.33
2023-07-19T21:04:07.020Z,21.53
2023-07-19T21:06:37.325Z,21.69
2023-07-19T21:09:06.457Z,21.77
2023-07-19T21:11:35.420Z,21.86
2023-07-19T21:14:04.307Z,22.00
2023-07-19T21:16:33.238Z,22.06
2023-07-19T21:19:03.342Z,22.07
2023-07-19T21:21:32.304Z,21.55
2023-07-19T21:24:02.390Z,21.74
2023-07-19T21:26:33.900Z,21.63
2023-07-19T21:29:02.603Z,21.78
2023-07-19T21:31:31.812Z,21.84
2023-07-19T21:34:00.526Z,21.91
2023-07-19T21:36:30.886Z,21.58
2023-07-19T21:38:59.500Z,21.39
2023-07-19T21:41:28.402Z,21.56
2023-07-19T21:43:57.031Z,21.66
2023-07-19T21:46:26.127Z,21.77
2023-07-19T21:48:56.584Z,21.79
2023-07-19T21:51:25.667Z,21.76
2023-07-19T21:53:55.994Z,21.72
2023-07-19T21:56:26.367Z,21.82
2023-07-19T21:58:55.372Z,21.80
2023-07-19T22:01:24.366Z,21.87
2023-07-19T22:03:53.177Z,21.89
2023-07-19T22:06:22.300Z,21.96
2023-07-19T22:08:51.512Z,21.99
2023-07-19T22:11:21.936Z,21.94
2023-07-19T22:13:50.618Z,21.97
2023-07-19T22:16:19.874Z,22.01
2023-07-19T22:18:48.954Z,21.98
2023-07-19T22:21:22.268Z,21.78
2023-07-19T22:23:51.571Z,21.82
2023-07-19T22:26:22.409Z,21.72
2023-07-19T22:28:52.633Z,21.78
2023-07-19T22:31:21.858Z,21.73
2023-07-19T22:33:50.603Z,21.77
2023-07-19T22:36:19.739Z,21.82
2023-07-19T22:38:48.528Z,21.82
2023-07-19T22:41:17.622Z,21.71
2023-07-19T22:43:49.395Z,21.61
2023-07-19T22:46:20.054Z,21.72
2023-07-19T22:48:50.488Z,21.68
2023-07-19T22:51:19.783Z,21.66
2023-07-19T22:53:48.535Z,21.62
2023-07-19T22:56:17.452Z,21.62
2023-07-19T22:58:47.427Z,21.77
2023-07-19T23:01:16.420Z,21.48
2023-07-19T23:03:45.223Z,21.13
2023-07-19T23:06:14.242Z,20.93
2023-07-19T23:08:42.726Z,20.80
2023-07-19T23:11:11.604Z,20.42
2023-07-19T23:13:40.188Z,20.40
2023-07-19T23:16:10.365Z,20.65
2023-07-19T23:18:38.876Z,20.61
2023-07-19T23:21:07.804Z,20.21
2023-07-19T23:23:36.292Z,20.33
2023-07-19T23:26:05.211Z,20.21
2023-07-19T23:28:36.993Z,20.16
2023-07-19T23:31:08.367Z,20.08
2023-07-19T23:33:38.455Z,19.70
2023-07-19T23:36:09.149Z,19.74
2023-07-19T23:38:37.675Z,19.93
2023-07-19T23:41:06.543Z,19.69
2023-07-19T23:43:35.094Z,19.77
2023-07-19T23:46:04.201Z,19.79
2023-07-19T23:48:32.681Z,19.76
2023-07-19T23:51:04.376Z,19.65
2023-07-19T23:53:32.863Z,19.56
2023-07-19T23:56:01.637Z,19.57
2023-07-19T23:58:30.153Z,19.47
